createdAt,value
2022-12-27T00:00:31.154Z,81.01
2022-12-27T00:03:38.059Z,80.91
2022-12-27T00:06:44.471Z,80.68
2022-12-27T00:09:51.496Z,80.66
2022-12-27T00:13:00.189Z,80.61
2022-12-27T00:16:09.020Z,80.43
2022-12-27T00:19:15.179Z,80.54
2022-12-27T00:22:22.615Z,79.90
2022-12-27T00:25:28.681Z,79.91
2022-12-27T00:28:39.651Z,79.85
2022-12-27T00:31:45.836Z,79.93
2022-12-27T00:34:52.790Z,80.05
2022-12-27T00:37:58.841Z,80.06
2022-12-27T00:41:07.328Z,79.79
2022-12-27T00:44:15.995Z,79.80
2022-12-27T00:47:22.845Z,79.94
2022-12-27T00:50:28.920Z,79.93
2022-12-27T00:53:37.997Z,80.18
2022-12-27T00:56:44.128Z,79.64
2022-12-27T00:59:53.960Z,79.57
2022-12-27T01:03:00.657Z,79.46
2022-12-27T01:06:08.726Z,79.25
2022-12-27T01:09:14.792Z,79.24
2022-12-27T01:12:21.624Z,79.40
2022-12-27T01:15:30.663Z,79.13
2022-12-27T01:18:37.452Z,78.54
2022-12-27T01:21:44.225Z,78.54
2022-12-27T01:24:51.468Z,77.97
2022-12-27T01:27:57.465Z,77.83
2022-12-27T01:31:13.703Z,77.68
2022-12-27T01:34:21.451Z,77.90
2022-12-27T01:37:30.313Z,77.52
2022-12-27T01:40:38.972Z,77.15
2022-12-27T01:43:43.143Z,76.92
2022-12-27T01:46:51.984Z,76.95
2022-12-27T01:50:10.216Z,76.55
2022-12-27T01:53:24.252Z,76.85
2022-12-27T01:56:35.021Z,76.69
2022-12-27T01:59:42.830Z,77.14
2022-12-27T02:02:54.242Z,77.71
2022-12-27T02:06:04.807Z,78.02
2022-12-27T02:09:23.903Z,78.75
2022-12-27T02:12:31.725Z,79.78
2022-12-27T02:15:39.285Z,79.84
2022-12-27T02:18:49.848Z,80.38
2022-12-27T02:22:53.443Z,80.60
2022-12-27T02:26:42.206Z,81.12
2022-12-27T02:30:09.136Z,81.32
2022-12-27T02:33:28.177Z,81.59
2022-12-27T02:36:42.292Z,81.73
2022-12-27T02:39:53.306Z,81.56
2022-12-27T02:43:13.558Z,81.69
2022-12-27T02:46:51.884Z,81.62
2022-12-27T02:50:11.052Z,81.18
2022-12-27T02:53:37.044Z,81.43
2022-12-27T02:57:13.648Z,80.61
2022-12-27T03:00:36.818Z,80.78
2022-12-27T03:04:12.901Z,81.27
2022-12-27T03:07:38.820Z,81.06
2022-12-27T03:11:09.084Z,80.61
2022-12-27T03:14:41.235Z,80.65
2022-12-27T03:18:05.719Z,80.20
2022-12-27T03:21:37.092Z,80.99
2022-12-27T03:24:57.276Z,80.54
2022-12-27T03:28:22.184Z,80.29
2022-12-27T03:31:48.124Z,80.45
2022-12-27T03:35:03.809Z,79.44
2022-12-27T03:38:15.403Z,79.60
2022-12-27T03:41:45.023Z,79.51
2022-12-27T03:44:53.058Z,80.18
2022-12-27T03:48:06.169Z,80.14
2022-12-27T03:51:16.172Z,80.44
2022-12-27T03:54:32.493Z,80.15
2022-12-27T03:57:40.808Z,81.66
2022-12-27T04:00:46.907Z,80.51
2022-12-27T04:03:53.797Z,78.97
2022-12-27T04:07:00.077Z,80.03
2022-12-27T04:10:22.700Z,80.71
2022-12-27T04:13:41.124Z,80.80
2022-12-27T04:17:00.429Z,81.06
2022-12-27T04:20:19.054Z,80.35
2022-12-27T04:23:38.501Z,80.83
2022-12-27T04:26:59.437Z,80.66
2022-12-27T04:30:19.037Z,80.80
2022-12-27T04:33:37.349Z,81.21
2022-12-27T04:36:44.425Z,81.40
2022-12-27T04:40:12.731Z,80.82
2022-12-27T04:43:34.552Z,80.85
2022-12-27T04:46:52.973Z,80.68
2022-12-27T04:50:12.218Z,81.08
2022-12-27T04:53:34.094Z,81.24
2022-12-27T04:56:40.943Z,81.08
2022-12-27T05:00:01.954Z,80.50
2022-12-27T05:03:15.437Z,80.62
2022-12-27T05:06:23.251Z,81.60
2022-12-27T05:09:57.558Z,81.93
2022-12-27T05:13:15.941Z,81.78
2022-12-27T05:16:25.445Z,82.39
2022-12-27T05:19:31.468Z,82.32
2022-12-27T05:22:50.403Z,82.72
2022-12-27T05:25:56.409Z,82.40
2022-12-27T05:29:04.076Z,82.65
2022-12-27T05:32:13.821Z,82.67
2022-12-27T05:35:20.745Z,82.92
2022-12-27T05:38:26.693Z,82.92
2022-12-27T05:41:34.440Z,83.65
2022-12-27T05:44:40.463Z,83.45
2022-12-27T05:47:50.008Z,83.39
2022-12-27T05:50:56.044Z,83.37
2022-12-27T05:54:03.389Z,83.55
2022-12-27T05:57:09.477Z,82.80
2022-12-27T06:00:18.036Z,83.01
2022-12-27T06:03:27.964Z,83.46
2022-12-27T06:06:35.101Z,83.08
2022-12-27T06:09:41.380Z,82.62
2022-12-27T06:12:48.196Z,83.11
2022-12-27T06:15:54.177Z,82.50
2022-12-27T06:19:03.677Z,82.64
2022-12-27T06:22:09.846Z,82.26
2022-12-27T06:25:17.051Z,82.93
2022-12-27T06:28:23.911Z,83.16
2022-12-27T06:31:31.627Z,83.23
2022-12-27T06:34:42.796Z,82.61
2022-12-27T06:37:49.654Z,83.49
2022-12-27T06:40:55.600Z,83.84
2022-12-27T06:44:02.589Z,83.39
2022-12-27T06:47:08.895Z,82.94
2022-12-27T06:50:18.547Z,82.77
2022-12-27T06:53:24.636Z,82.02
2022-12-27T06:56:31.574Z,80.97
2022-12-27T06:59:37.596Z,80.99
2022-12-27T07:02:45.819Z,79.94
2022-12-27T07:05:54.494Z,80.30
2022-12-27T07:09:03.909Z,80.83
2022-12-27T07:12:10.600Z,80.70
2022-12-27T07:15:17.723Z,80.41
2022-12-27T07:18:23.730Z,80.01
2022-12-27T07:21:33.321Z,79.84
2022-12-27T07:24:39.494Z,78.81
2022-12-27T07:27:47.351Z,78.71
2022-12-27T07:30:53.434Z,78.28
2022-12-27T07:34:03.154Z,78.63
2022-12-27T07:37:12.020Z,78.43
2022-12-27T07:40:19.122Z,77.87
2022-12-27T07:43:25.195Z,77.94
2022-12-27T07:46:33.143Z,77.06
2022-12-27T07:49:39.203Z,77.27
2022-12-27T07:52:48.975Z,77.73
2022-12-27T07:55:55.224Z,77.70
2022-12-27T07:59:05.281Z,77.40
2022-12-27T08:02:14.115Z,77.04
2022-12-27T08:05:25.961Z,76.79
2022-12-27T08:08:46.712Z,76.12
2022-12-27T08:11:53.528Z,75.11
2022-12-27T08:14:59.562Z,74.06
2022-12-27T08:18:06.518Z,74.09
2022-12-27T08:21:14.392Z,73.52
2022-12-27T08:24:24.783Z,72.39
2022-12-27T08:27:30.908Z,70.39
2022-12-27T08:30:38.436Z,68.00
2022-12-27T08:33:45.075Z,65.35
2022-12-27T08:36:55.938Z,64.53
2022-12-27T08:40:05.107Z,61.13
2022-12-27T08:43:13.258Z,60.06
2022-12-27T08:46:19.989Z,59.21
2022-12-27T08:49:27.743Z,57.99
2022-12-27T08:52:33.781Z,56.06
2022-12-27T08:55:43.336Z,55.89
2022-12-27T08:58:52.097Z,54.53
2022-12-27T09:01:59.149Z,52.49
2022-12-27T09:05:05.268Z,51.89
2022-12-27T09:08:13.791Z,51.33
2022-12-27T09:11:26.105Z,51.08
2022-12-27T09:14:36.079Z,50.48
2022-12-27T09:17:42.980Z,49.58
2022-12-27T09:20:49.933Z,51.05
2022-12-27T09:23:56.084Z,50.80
2022-12-27T09:27:05.573Z,48.40
2022-12-27T09:30:13.327Z,47.86
2022-12-27T09:33:20.231Z,48.52
2022-12-27T09:36:30.059Z,48.66
2022-12-27T09:39:36.935Z,47.17
2022-12-27T09:43:12.567Z,46.44
2022-12-27T09:46:41.624Z,45.67
2022-12-27T09:49:54.959Z,45.56
2022-12-27T09:53:11.919Z,45.16
2022-12-27T09:56:40.857Z,44.39
2022-12-27T10:00:05.815Z,44.80
2022-12-27T10:03:13.250Z,44.01
2022-12-27T10:06:47.214Z,42.77
2022-12-27T10:10:13.444Z,43.95
2022-12-27T10:13:46.428Z,43.41
2022-12-27T10:17:10.302Z,42.40
2022-12-27T10:20:34.851Z,42.97
2022-12-27T10:23:50.714Z,42.91
2022-12-27T10:26:59.043Z,42.32
2022-12-27T10:30:07.168Z,41.35
2022-12-27T10:33:27.838Z,41.43
2022-12-27T10:36:36.945Z,41.67
2022-12-27T10:39:45.744Z,41.25
2022-12-27T10:43:06.390Z,41.19
2022-12-27T10:46:23.580Z,40.74
2022-12-27T10:49:37.147Z,41.10
2022-12-27T10:52:44.151Z,41.88
2022-12-27T10:55:50.277Z,41.66
2022-12-27T10:59:08.909Z,41.26
2022-12-27T11:02:23.206Z,41.35
2022-12-27T11:05:37.369Z,40.55
2022-12-27T11:08:43.550Z,39.53
2022-12-27T11:11:50.483Z,39.10
2022-12-27T11:15:02.974Z,38.76
2022-12-27T11:18:21.212Z,38.85
2022-12-27T11:21:32.646Z,39.40
2022-12-27T11:24:40.671Z,40.05
2022-12-27T11:27:52.684Z,40.81
2022-12-27T11:31:04.332Z,40.97
2022-12-27T11:34:20.819Z,42.68
2022-12-27T11:37:31.142Z,44.42
2022-12-27T11:40:37.745Z,45.66
2022-12-27T11:43:55.156Z,46.62
2022-12-27T11:47:14.742Z,47.69
2022-12-27T11:50:53.246Z,48.35
2022-12-27T11:54:43.175Z,46.90
2022-12-27T11:58:27.341Z,45.04
2022-12-27T12:02:22.915Z,43.64
2022-12-27T12:06:06.191Z,43.45
2022-12-27T12:09:58.835Z,43.85
2022-12-27T12:13:51.580Z,45.36
2022-12-27T12:17:35.537Z,46.16
2022-12-27T12:21:22.356Z,46.76
2022-12-27T12:24:56.289Z,47.58
2022-12-27T12:28:58.235Z,48.64
2022-12-27T12:32:35.277Z,48.56
2022-12-27T12:36:06.754Z,49.03
2022-12-27T12:39:37.089Z,50.15
2022-12-27T12:43:00.563Z,49.81
2022-12-27T12:46:26.123Z,49.92
2022-12-27T12:50:17.934Z,47.60
2022-12-27T12:53:54.034Z,47.77
2022-12-27T12:57:19.834Z,47.46
2022-12-27T13:00:45.790Z,47.31
2022-12-27T13:04:34.808Z,48.38
2022-12-27T13:08:05.432Z,48.99
2022-12-27T13:11:46.649Z,49.81
2022-12-27T13:15:23.613Z,49.62
2022-12-27T13:18:51.227Z,50.39
2022-12-27T13:22:18.641Z,51.93
2022-12-27T13:25:44.527Z,51.51
2022-12-27T13:29:27.722Z,51.54
2022-12-27T13:32:59.385Z,51.81
2022-12-27T13:36:28.687Z,52.53
2022-12-27T13:40:23.451Z,52.32
2022-12-27T13:43:58.081Z,52.24
2022-12-27T13:47:43.597Z,52.65
2022-12-27T13:51:37.008Z,53.01
2022-12-27T13:55:34.494Z,53.44
2022-12-27T13:59:15.761Z,53.60
2022-12-27T14:03:00.646Z,53.64
2022-12-27T14:06:45.306Z,53.16
2022-12-27T14:10:15.527Z,53.61
2022-12-27T14:13:32.537Z,54.19
2022-12-27T14:16:59.383Z,53.61
2022-12-27T14:20:46.226Z,54.57
2022-12-27T14:24:21.475Z,55.02
2022-12-27T14:28:24.648Z,55.81
2022-12-27T14:32:11.593Z,55.51
2022-12-27T14:36:17.464Z,56.20
2022-12-27T14:40:34.931Z,56.98
2022-12-27T14:44:37.062Z,56.62
2022-12-27T14:48:38.864Z,56.58
2022-12-27T14:52:47.442Z,57.01
2022-12-27T14:56:15.518Z,56.93
2022-12-27T14:59:44.438Z,56.81
2022-12-27T15:03:27.838Z,56.56
2022-12-27T15:07:22.374Z,57.17
2022-12-27T15:11:08.476Z,59.00
2022-12-27T15:14:46.202Z,60.15
2022-12-27T15:18:28.531Z,60.50
2022-12-27T15:22:01.321Z,60.78
2022-12-27T15:25:29.723Z,60.63
2022-12-27T15:29:04.735Z,60.81
2022-12-27T15:32:35.555Z,60.81
2022-12-27T15:35:59.584Z,60.88
2022-12-27T15:39:08.578Z,61.13
2022-12-27T15:42:48.905Z,61.01
2022-12-27T15:46:23.878Z,61.11
2022-12-27T15:50:13.320Z,61.07
2022-12-27T15:53:43.824Z,61.07
2022-12-27T15:57:51.376Z,61.34
2022-12-27T16:01:31.097Z,61.52
2022-12-27T16:04:53.960Z,61.40
2022-12-27T16:08:30.690Z,61.37
2022-12-27T16:12:07.330Z,61.57
2022-12-27T16:15:54.784Z,61.44
2022-12-27T16:19:41.071Z,60.84
2022-12-27T16:22:58.589Z,61.29
2022-12-27T16:26:12.110Z,60.94
2022-12-27T16:29:20.483Z,61.16
2022-12-27T16:32:31.230Z,61.36
2022-12-27T16:35:41.151Z,61.33
2022-12-27T16:39:06.027Z,61.92
2022-12-27T16:42:13.496Z,61.68
2022-12-27T16:45:49.654Z,61.98
2022-12-27T16:49:55.079Z,61.70
2022-12-27T16:53:39.475Z,61.45
2022-12-27T16:56:48.426Z,61.76
2022-12-27T17:00:05.812Z,61.81
2022-12-27T17:03:35.668Z,61.62
2022-12-27T17:06:59.499Z,61.77
2022-12-27T17:10:50.900Z,62.05
2022-12-27T17:14:11.851Z,62.14
2022-12-27T17:17:24.544Z,62.07
2022-12-27T17:20:34.219Z,62.14
2022-12-27T17:23:45.829Z,62.81
2022-12-27T17:27:16.626Z,62.75
2022-12-27T17:30:40.463Z,62.91
2022-12-27T17:34:09.829Z,63.10
2022-12-27T17:37:28.573Z,63.01
2022-12-27T17:40:50.245Z,63.19
2022-12-27T17:44:30.815Z,62.90
2022-12-27T17:48:06.534Z,63.00
2022-12-27T17:51:21.686Z,62.82
2022-12-27T17:54:50.718Z,63.08
2022-12-27T17:57:59.611Z,62.88
2022-12-27T18:01:06.817Z,63.26
2022-12-27T18:04:27.457Z,63.40
2022-12-27T18:07:37.456Z,63.44
2022-12-27T18:10:45.622Z,63.70
2022-12-27T18:13:59.262Z,63.69
2022-12-27T18:17:07.029Z,64.01
2022-12-27T18:20:39.093Z,64.45
2022-12-27T18:23:49.405Z,64.32
2022-12-27T18:27:08.314Z,64.45
2022-12-27T18:30:16.237Z,64.42
2022-12-27T18:33:34.584Z,64.68
2022-12-27T18:36:53.675Z,64.94
2022-12-27T18:40:07.154Z,65.56
2022-12-27T18:43:18.914Z,65.34
2022-12-27T18:46:34.313Z,65.63
2022-12-27T18:49:41.548Z,65.47
2022-12-27T18:52:54.972Z,65.63
2022-12-27T18:56:07.081Z,65.69
2022-12-27T18:59:29.108Z,65.74
2022-12-27T19:02:39.471Z,65.80
2022-12-27T19:06:06.296Z,66.34
2022-12-27T19:09:24.204Z,66.20
2022-12-27T19:12:39.800Z,66.88
2022-12-27T19:15:47.914Z,67.26
2022-12-27T19:18:58.540Z,67.60
2022-12-27T19:22:05.802Z,67.61
2022-12-27T19:25:30.251Z,68.08
2022-12-27T19:28:38.882Z,68.11
2022-12-27T19:31:54.568Z,68.22
2022-12-27T19:35:08.756Z,68.33
2022-12-27T19:38:24.676Z,68.46
2022-12-27T19:41:34.358Z,68.58
2022-12-27T19:44:41.174Z,68.55
2022-12-27T19:47:54.312Z,69.00
2022-12-27T19:51:03.399Z,69.30
2022-12-27T19:54:22.613Z,68.98
2022-12-27T19:57:36.235Z,69.68
2022-12-27T20:00:59.865Z,69.66
2022-12-27T20:04:11.072Z,69.51
2022-12-27T20:07:27.803Z,69.75
2022-12-27T20:10:37.960Z,69.83
2022-12-27T20:13:50.219Z,70.12
2022-12-27T20:16:57.189Z,70.32
2022-12-27T20:20:06.541Z,70.30
2022-12-27T20:23:17.110Z,70.41
2022-12-27T20:26:28.249Z,70.46
2022-12-27T20:29:37.255Z,70.88
2022-12-27T20:32:44.302Z,70.55
2022-12-27T20:35:59.889Z,70.32
2022-12-27T20:39:07.928Z,70.08
2022-12-27T20:42:14.195Z,70.33
2022-12-27T20:45:23.989Z,70.38
2022-12-27T20:48:30.261Z,70.47
2022-12-27T20:51:38.143Z,70.60
2022-12-27T20:54:44.730Z,70.54
2022-12-27T20:57:51.715Z,70.28
2022-12-27T21:01:00.542Z,70.75
2022-12-27T21:04:07.984Z,70.43
2022-12-27T21:07:14.173Z,70.48
2022-12-27T21:10:21.398Z,70.69
2022-12-27T21:13:27.575Z,70.38
2022-12-27T21:16:38.981Z,70.41
2022-12-27T21:19:45.283Z,70.41
2022-12-27T21:22:52.274Z,70.49
2022-12-27T21:25:58.464Z,70.47
2022-12-27T21:29:09.610Z,70.29
2022-12-27T21:32:18.400Z,70.59
2022-12-27T21:35:25.283Z,70.31
2022-12-27T21:38:32.922Z,69.86
2022-12-27T21:41:43.298Z,70.15
2022-12-27T21:44:49.344Z,70.38
2022-12-27T21:47:58.857Z,69.94
2022-12-27T21:51:09.729Z,70.01
2022-12-27T21:54:17.125Z,70.02
2022-12-27T21:57:23.281Z,70.34
2022-12-27T22:00:30.124Z,70.77
2022-12-27T22:03:41.719Z,70.54
2022-12-27T22:06:48.832Z,70.28
2022-12-27T22:09:54.922Z,70.54
2022-12-27T22:13:01.828Z,70.53
2022-12-27T22:16:14.732Z,70.47
2022-12-27T22:19:24.274Z,70.61
2022-12-27T22:22:30.366Z,70.23
2022-12-27T22:25:37.277Z,70.47
2022-12-27T22:28:44.218Z,70.65
2022-12-27T22:31:51.125Z,70.80
2022-12-27T22:34:59.782Z,70.91
2022-12-27T22:38:07.173Z,70.73
2022-12-27T22:41:17.384Z,70.70
2022-12-27T22:44:24.387Z,70.80
2022-12-27T22:47:30.404Z,71.20
2022-12-27T22:50:40.808Z,71.68
2022-12-27T22:53:47.329Z,72.07
2022-12-27T22:56:54.210Z,71.81
2022-12-27T23:00:00.304Z,71.90
2022-12-27T23:03:07.321Z,72.43
2022-12-27T23:06:16.589Z,72.52
2022-12-27T23:09:23.463Z,72.74
2022-12-27T23:12:29.539Z,72.71
2022-12-27T23:15:36.516Z,72.66
2022-12-27T23:18:43.141Z,72.31
2022-12-27T23:21:52.681Z,72.44
2022-12-27T23:24:58.725Z,71.72
2022-12-27T23:28:05.829Z,71.65
2022-12-27T23:31:14.739Z,71.57
2022-12-27T23:34:27.719Z,71.55
2022-12-27T23:37:37.603Z,71.11
2022-12-27T23:40:44.544Z,70.96
2022-12-27T23:43:54.464Z,70.89
2022-12-27T23:47:02.224Z,71.09
2022-12-27T23:50:10.971Z,71.16
2022-12-27T23:53:21.842Z,71.16
2022-12-27T23:56:30.834Z,71.12
2022-12-27T23:59:37.862Z,71.78
